createdAt,value
2019-04-14T00:00:49.467Z,32.85
2019-04-14T00:03:22.332Z,32.17
2019-04-14T00:06:00.500Z,31.70
2019-04-14T00:08:32.707Z,30.12
2019-04-14T00:11:02.089Z,33.02
2019-04-14T00:13:32.722Z,30.37
2019-04-14T00:16:03.126Z,30.90
2019-04-14T00:18:33.672Z,29.65
2019-04-14T00:21:04.428Z,32.70
2019-04-14T00:23:34.760Z,31.07
2019-04-14T00:26:27.274Z,30.75
2019-04-14T00:28:58.041Z,31.82
2019-04-14T00:31:28.677Z,32.15
2019-04-14T00:34:00.713Z,30.97
2019-04-14T00:36:35.688Z,30.40
2019-04-14T00:39:25.119Z,30.52
2019-04-14T00:42:13.127Z,31.02
2019-04-14T00:44:45.250Z,31.05
2019-04-14T00:47:17.978Z,30.95
2019-04-14T00:49:48.635Z,31.93
2019-04-14T00:52:18.990Z,33.35
2019-04-14T00:54:48.470Z,33.08
2019-04-14T00:57:18.067Z,32.93
2019-04-14T00:59:48.676Z,34.05
2019-04-14T01:02:18.926Z,33.85
2019-04-14T01:04:49.148Z,34.03
2019-04-14T01:07:19.438Z,32.58
2019-04-14T01:09:48.977Z,33.02
2019-04-14T01:12:19.201Z,34.67
2019-04-14T01:14:49.572Z,35.20
2019-04-14T01:17:19.905Z,34.10
2019-04-14T01:19:50.537Z,35.00
2019-04-14T01:22:20.615Z,38.10
2019-04-14T01:24:51.051Z,34.92
2019-04-14T01:27:21.553Z,38.25
2019-04-14T01:29:51.646Z,37.55
2019-04-14T01:32:21.924Z,35.60
2019-04-14T01:34:53.656Z,37.38
2019-04-14T01:37:24.686Z,38.10
2019-04-14T01:39:54.575Z,38.83
2019-04-14T01:42:24.559Z,36.50
2019-04-14T01:44:54.663Z,36.55
2019-04-14T01:47:24.913Z,37.05
2019-04-14T01:49:55.169Z,38.38
2019-04-14T01:52:27.364Z,37.75
2019-04-14T01:55:17.936Z,38.70
2019-04-14T02:00:51.265Z,38.20
2019-04-14T02:03:21.733Z,38.10
2019-04-14T02:05:51.756Z,41.35
2019-04-14T02:08:21.990Z,39.80
2019-04-14T02:10:52.053Z,38.15
2019-04-14T02:13:22.548Z,40.85
2019-04-14T02:15:52.830Z,40.35
2019-04-14T02:18:22.939Z,38.67
2019-04-14T02:20:53.488Z,39.55
2019-04-14T02:23:23.615Z,40.98
2019-04-14T02:25:54.079Z,40.43
2019-04-14T02:28:24.272Z,41.75
2019-04-14T02:31:06.367Z,41.55
2019-04-14T02:38:55.307Z,41.40
2019-04-14T02:41:33.670Z,39.85
2019-04-14T02:43:56.456Z,38.60
2019-04-14T02:46:34.511Z,40.15
2019-04-14T02:51:33.776Z,40.85
2019-04-14T03:01:38.897Z,43.23
2019-04-14T03:04:05.917Z,42.50
2019-04-14T03:06:38.523Z,44.00
2019-04-14T03:09:23.966Z,43.40
2019-04-14T03:11:40.274Z,44.05
2019-04-14T03:17:14.606Z,41.83
2019-04-14T03:19:59.138Z,43.92
2019-04-14T03:30:51.674Z,42.73
2019-04-14T03:33:27.331Z,45.17
2019-04-14T03:35:58.840Z,45.95
2019-04-14T03:37:54.448Z,46.25
2019-04-14T03:40:25.917Z,46.75
2019-04-14T03:43:05.849Z,44.90
2019-04-14T03:45:46.809Z,46.63
2019-04-14T03:48:34.596Z,47.67
2019-04-14T03:53:21.379Z,49.27
2019-04-14T03:55:25.078Z,47.83
2019-04-14T03:57:45.533Z,46.35
2019-04-14T04:00:15.897Z,48.80
2019-04-14T04:02:46.610Z,50.55
2019-04-14T04:05:17.336Z,49.08
2019-04-14T04:07:47.490Z,48.02
2019-04-14T04:10:17.989Z,48.95
2019-04-14T04:12:48.635Z,47.40
2019-04-14T04:15:19.229Z,45.80
2019-04-14T04:17:53.797Z,46.63
2019-04-14T04:20:24.859Z,46.35
2019-04-14T04:23:12.130Z,47.67
2019-04-14T04:25:44.334Z,45.60
2019-04-14T04:28:16.491Z,45.92
2019-04-14T04:30:49.414Z,47.75
2019-04-14T04:33:26.433Z,48.73
2019-04-14T04:35:58.408Z,47.67
2019-04-14T04:38:29.670Z,47.98
2019-04-14T04:40:59.440Z,49.67
2019-04-14T04:43:29.740Z,49.75
2019-04-14T04:46:00.665Z,52.00
2019-04-14T04:48:31.196Z,52.08
2019-04-14T04:51:01.398Z,53.35
2019-04-14T04:53:30.980Z,53.15
2019-04-14T04:56:01.572Z,52.78
2019-04-14T04:58:30.984Z,53.15
2019-04-14T05:01:01.407Z,48.38
2019-04-14T05:03:31.807Z,52.03
2019-04-14T05:06:24.838Z,52.08
2019-04-14T05:08:56.994Z,49.25
2019-04-14T05:11:40.403Z,51.37
2019-04-14T05:14:15.156Z,50.78
2019-04-14T05:16:44.648Z,52.20
2019-04-14T05:19:23.789Z,50.28
2019-04-14T05:21:47.307Z,47.93
2019-04-14T05:24:17.819Z,49.93
2019-04-14T05:26:50.575Z,47.73
2019-04-14T05:29:21.003Z,44.53
2019-04-14T05:31:51.171Z,41.83
2019-04-14T05:34:22.156Z,41.88
2019-04-14T05:36:52.128Z,42.05
2019-04-14T05:39:22.070Z,41.80
2019-04-14T05:42:02.553Z,40.63
2019-04-14T05:44:23.204Z,40.03
2019-04-14T05:46:53.467Z,41.48
2019-04-14T05:49:31.516Z,41.15
2019-04-14T05:51:54.439Z,38.23
2019-04-14T05:54:23.751Z,39.13
2019-04-14T05:56:53.743Z,38.75
2019-04-14T05:59:24.174Z,38.53
2019-04-14T06:01:54.534Z,37.35
2019-04-14T06:04:24.326Z,37.38
2019-04-14T06:06:53.752Z,38.08
2019-04-14T06:09:24.043Z,38.83
2019-04-14T06:11:54.204Z,38.65
2019-04-14T06:14:23.585Z,36.53
2019-04-14T06:16:52.877Z,37.28
2019-04-14T06:19:22.358Z,39.05
2019-04-14T06:21:51.610Z,37.93
2019-04-14T06:24:21.976Z,36.73
2019-04-14T06:26:51.328Z,35.43
2019-04-14T06:29:21.697Z,37.75
2019-04-14T06:31:52.679Z,38.53
2019-04-14T06:34:26.313Z,36.88
2019-04-14T06:36:57.321Z,38.65
2019-04-14T06:39:28.364Z,34.33
2019-04-14T06:41:57.643Z,35.50
2019-04-14T06:44:27.022Z,36.35
2019-04-14T06:46:56.297Z,36.88
2019-04-14T06:49:25.612Z,35.28
2019-04-14T06:51:54.952Z,35.58
2019-04-14T06:54:24.360Z,34.73
2019-04-14T06:56:53.716Z,34.15
2019-04-14T06:59:23.225Z,34.88
2019-04-14T07:01:52.522Z,36.35
2019-04-14T07:04:21.839Z,36.40
2019-04-14T07:06:51.493Z,35.40
2019-04-14T07:09:20.991Z,36.48
2019-04-14T07:11:50.468Z,34.13
2019-04-14T07:14:19.739Z,33.48
2019-04-14T07:16:51.406Z,34.58
2019-04-14T07:19:20.293Z,33.20
2019-04-14T07:21:49.572Z,33.05
2019-04-14T07:24:18.915Z,34.95
2019-04-14T07:26:48.223Z,36.23
2019-04-14T07:29:17.481Z,34.48
2019-04-14T07:31:49.616Z,36.05
2019-04-14T07:34:22.989Z,34.25
2019-04-14T07:36:59.666Z,34.45
2019-04-14T07:39:33.446Z,33.42
2019-04-14T07:42:07.338Z,34.53
2019-04-14T07:44:51.044Z,34.23
2019-04-14T07:47:22.006Z,32.98
2019-04-14T07:49:55.920Z,34.92
2019-04-14T07:52:29.880Z,35.45
2019-04-14T07:55:06.794Z,33.95
2019-04-14T07:57:46.924Z,33.28
2019-04-14T08:00:34.392Z,34.43
2019-04-14T08:03:08.549Z,36.08
2019-04-14T08:05:41.516Z,34.48
2019-04-14T08:08:11.949Z,35.83
2019-04-14T08:10:41.321Z,34.13
2019-04-14T08:13:11.034Z,34.78
2019-04-14T08:15:40.591Z,33.30
2019-04-14T08:18:09.972Z,36.73
2019-04-14T08:20:39.243Z,36.10
2019-04-14T08:23:08.689Z,33.53
2019-04-14T08:25:37.944Z,34.25
2019-04-14T08:28:07.345Z,33.90
2019-04-14T08:30:36.796Z,33.63
2019-04-14T08:33:06.208Z,34.03
2019-04-14T08:35:36.380Z,34.40
2019-04-14T08:38:05.834Z,32.53
2019-04-14T08:40:38.412Z,34.33
2019-04-14T08:43:23.140Z,35.15
2019-04-14T08:46:03.226Z,33.25
2019-04-14T08:48:49.001Z,34.15
2019-04-14T08:51:22.628Z,33.38
2019-04-14T08:53:53.706Z,31.27
2019-04-14T08:56:30.532Z,31.27
2019-04-14T08:59:01.476Z,31.87
2019-04-14T09:01:44.281Z,32.05
2019-04-14T09:04:31.188Z,32.88
2019-04-14T09:07:14.950Z,31.48
2019-04-14T09:09:50.365Z,31.05
2019-04-14T09:12:21.347Z,30.75
2019-04-14T09:14:56.872Z,30.68
2019-04-14T09:17:21.742Z,30.50
2019-04-14T09:19:51.117Z,29.60
2019-04-14T09:22:20.497Z,29.75
2019-04-14T09:24:49.853Z,29.80
2019-04-14T09:27:19.374Z,29.65
2019-04-14T09:29:48.727Z,28.50
2019-04-14T09:32:19.823Z,29.10
2019-04-14T09:34:49.264Z,27.22
2019-04-14T09:37:18.735Z,26.80
2019-04-14T09:39:48.031Z,25.92
2019-04-14T09:42:17.336Z,25.80
2019-04-14T09:44:48.297Z,25.70
2019-04-14T09:47:17.774Z,25.25
2019-04-14T09:49:47.234Z,26.65
2019-04-14T09:52:16.659Z,26.55
2019-04-14T09:54:46.019Z,25.65
2019-04-14T09:57:15.320Z,26.73
2019-04-14T09:59:44.679Z,26.12
2019-04-14T10:02:15.786Z,26.25
2019-04-14T10:04:45.087Z,26.62
2019-04-14T10:07:14.382Z,25.32
2019-04-14T10:09:43.818Z,24.63
2019-04-14T10:12:13.174Z,22.80
2019-04-14T10:14:42.452Z,23.55
2019-04-14T10:17:11.828Z,23.47
2019-04-14T10:19:41.123Z,22.90
2019-04-14T10:22:10.512Z,24.55
2019-04-14T10:24:39.846Z,24.18
2019-04-14T10:27:09.132Z,24.40
2019-04-14T10:29:38.454Z,24.20
2019-04-14T10:32:07.831Z,22.90
2019-04-14T10:34:37.341Z,22.95
2019-04-14T10:37:06.834Z,23.52
2019-04-14T10:39:36.212Z,23.70
2019-04-14T10:42:05.669Z,23.65
2019-04-14T10:44:36.524Z,22.55
2019-04-14T10:47:07.316Z,22.10
2019-04-14T10:49:36.927Z,20.82
2019-04-14T10:52:06.243Z,21.87
2019-04-14T10:54:35.692Z,21.97
2019-04-14T10:57:05.083Z,22.55
2019-04-14T10:59:34.502Z,21.27
2019-04-14T11:02:03.947Z,20.70
2019-04-14T11:04:33.239Z,21.20
2019-04-14T11:07:04.254Z,21.97
2019-04-14T11:09:33.486Z,20.90
2019-04-14T11:12:03.203Z,21.55
2019-04-14T11:14:32.510Z,21.55
2019-04-14T11:17:01.841Z,21.73
2019-04-14T11:19:31.206Z,21.25
2019-04-14T11:22:00.578Z,21.12
2019-04-14T11:24:31.429Z,20.37
2019-04-14T11:27:00.909Z,20.30
2019-04-14T11:29:30.269Z,20.08
2019-04-14T11:32:17.311Z,21.37
2019-04-14T11:35:04.488Z,20.88
2019-04-14T11:37:50.659Z,19.75
2019-04-14T11:40:21.674Z,20.52
2019-04-14T11:42:52.554Z,19.95
2019-04-14T11:45:22.406Z,19.77
2019-04-14T11:47:51.744Z,19.98
2019-04-14T11:50:21.457Z,20.50
2019-04-14T11:52:50.823Z,20.37
2019-04-14T11:55:20.232Z,19.50
2019-04-14T11:57:49.570Z,20.27
2019-04-14T12:00:35.555Z,19.50
2019-04-14T12:03:18.891Z,19.60
2019-04-14T12:05:58.883Z,19.42
2019-04-14T12:08:29.813Z,19.67
2019-04-14T12:10:59.405Z,19.02
2019-04-14T12:13:30.447Z,19.80
2019-04-14T12:15:59.759Z,19.92
2019-04-14T12:18:29.341Z,20.80
2019-04-14T12:20:58.651Z,20.37
2019-04-14T12:23:28.127Z,20.40
2019-04-14T12:26:05.309Z,19.20
2019-04-14T12:28:28.569Z,19.23
2019-04-14T12:30:58.031Z,19.25
2019-04-14T12:33:28.673Z,19.23
2019-04-14T12:36:00.946Z,19.82
2019-04-14T12:38:30.398Z,19.57
2019-04-14T12:41:02.409Z,18.82
2019-04-14T12:43:45.745Z,19.67
2019-04-14T12:46:16.755Z,19.67
2019-04-14T12:48:47.680Z,19.73
2019-04-14T12:51:21.100Z,18.70
2019-04-14T12:53:50.529Z,19.00
2019-04-14T12:56:21.581Z,18.85
2019-04-14T12:59:01.904Z,19.85
2019-04-14T13:01:35.744Z,18.92
2019-04-14T13:04:05.727Z,18.75
2019-04-14T13:06:35.265Z,19.50
2019-04-14T13:09:06.307Z,19.12
2019-04-14T13:11:37.157Z,19.30
2019-04-14T13:14:06.501Z,19.02
2019-04-14T13:16:36.744Z,19.20
2019-04-14T13:19:06.096Z,18.55
2019-04-14T13:21:35.522Z,18.52
2019-04-14T13:24:05.294Z,19.67
2019-04-14T13:26:34.585Z,19.05
2019-04-14T13:29:04.068Z,18.95
2019-04-14T13:31:33.369Z,19.42
2019-04-14T13:34:02.691Z,18.98
2019-04-14T13:36:32.046Z,19.30
2019-04-14T13:39:01.892Z,19.30
2019-04-14T13:41:32.825Z,20.02
2019-04-14T13:44:02.225Z,18.95
2019-04-14T13:46:31.505Z,18.92
2019-04-14T13:49:00.801Z,19.45
2019-04-14T13:51:30.080Z,19.32
2019-04-14T13:54:00.468Z,18.85
2019-04-14T13:56:29.819Z,18.60
2019-04-14T13:58:59.834Z,18.87
2019-04-14T14:01:29.210Z,19.10
2019-04-14T14:03:58.560Z,18.77
2019-04-14T14:06:27.922Z,18.73
2019-04-14T14:08:57.344Z,18.92
2019-04-14T14:11:44.315Z,18.35
2019-04-14T14:14:32.970Z,18.90
2019-04-14T14:17:07.221Z,19.27
2019-04-14T14:19:55.208Z,19.12
2019-04-14T14:22:33.733Z,18.12
2019-04-14T14:25:12.892Z,18.40
2019-04-14T14:27:42.273Z,18.92
2019-04-14T14:30:13.680Z,18.27
2019-04-14T14:32:44.170Z,17.10
2019-04-14T14:35:13.553Z,17.85
2019-04-14T14:37:43.066Z,18.02
2019-04-14T14:40:12.815Z,17.87
2019-04-14T14:42:42.124Z,16.82
2019-04-14T14:45:29.967Z,17.87
2019-04-14T14:48:01.132Z,17.82
2019-04-14T14:50:33.854Z,17.02
2019-04-14T14:55:33.468Z,16.55
2019-04-14T14:58:03.042Z,16.07
2019-04-14T15:00:33.619Z,15.88
2019-04-14T15:03:03.380Z,15.88
2019-04-14T15:05:32.676Z,15.15
2019-04-14T15:08:03.680Z,15.25
2019-04-14T15:10:33.020Z,15.32
2019-04-14T15:13:02.381Z,15.35
2019-04-14T15:15:31.741Z,15.35
2019-04-14T15:18:01.142Z,15.45
2019-04-14T15:20:30.817Z,15.15
2019-04-14T15:23:00.097Z,14.15
2019-04-14T15:25:29.535Z,14.35
2019-04-14T15:27:58.896Z,15.00
2019-04-14T15:30:29.525Z,14.18
2019-04-14T15:32:58.963Z,15.13
2019-04-14T15:35:28.309Z,15.00
2019-04-14T15:37:59.263Z,16.15
2019-04-14T15:40:28.620Z,16.02
2019-04-14T15:42:57.953Z,16.48
2019-04-14T15:45:27.357Z,15.35
2019-04-14T15:47:58.475Z,16.35
2019-04-14T15:50:27.870Z,15.98
2019-04-14T15:52:57.793Z,15.95
2019-04-14T15:55:28.711Z,15.65
2019-04-14T15:58:17.833Z,15.65
2019-04-14T16:01:05.063Z,17.30
2019-04-14T16:03:39.010Z,16.05
2019-04-14T16:06:16.208Z,15.78
2019-04-14T16:09:02.631Z,16.07
2019-04-14T16:11:39.995Z,16.05
2019-04-14T16:14:10.715Z,15.55
2019-04-14T16:16:41.783Z,15.60
2019-04-14T16:19:30.941Z,15.03
2019-04-14T16:22:00.331Z,15.20
2019-04-14T16:24:32.616Z,14.90
2019-04-14T16:27:20.226Z,15.53
2019-04-14T16:30:07.630Z,15.98
2019-04-14T16:32:48.207Z,15.20
2019-04-14T16:35:26.092Z,15.80
2019-04-14T16:37:55.473Z,15.80
2019-04-14T16:40:25.893Z,15.45
2019-04-14T16:42:55.296Z,15.53
2019-04-14T16:45:24.788Z,15.48
2019-04-14T16:47:54.322Z,15.88
2019-04-14T16:50:23.824Z,15.58
2019-04-14T16:52:57.757Z,15.18
2019-04-14T16:55:37.866Z,15.18
2019-04-14T16:58:20.885Z,15.45
2019-04-14T17:03:24.103Z,15.95
2019-04-14T17:05:53.599Z,15.63
2019-04-14T17:08:23.046Z,15.48
2019-04-14T17:10:52.310Z,15.95
2019-04-14T17:13:22.963Z,16.20
2019-04-14T17:15:59.854Z,16.15
2019-04-14T17:18:33.612Z,15.45
2019-04-14T17:21:04.665Z,15.48
2019-04-14T17:23:41.673Z,16.02
2019-04-14T17:26:30.914Z,16.23
2019-04-14T17:29:04.990Z,15.38
2019-04-14T17:31:52.622Z,15.60
2019-04-14T17:34:23.710Z,16.60
2019-04-14T17:36:54.668Z,15.80
2019-04-14T17:39:31.621Z,15.90
2019-04-14T17:42:05.889Z,15.48
2019-04-14T17:44:42.639Z,15.88
2019-04-14T17:47:16.030Z,16.67
2019-04-14T17:49:47.211Z,15.48
2019-04-14T17:52:30.350Z,15.80
2019-04-14T17:55:16.650Z,16.40
2019-04-14T17:57:53.949Z,16.20
2019-04-14T18:00:33.854Z,16.52
2019-04-14T18:03:21.479Z,15.70
2019-04-14T18:05:58.802Z,16.37
2019-04-14T18:08:29.810Z,16.77
2019-04-14T18:11:17.566Z,15.65
2019-04-14T18:13:51.418Z,16.02
2019-04-14T18:16:22.733Z,15.60
2019-04-14T18:18:56.412Z,16.70
2019-04-14T18:21:25.769Z,16.40
2019-04-14T18:23:55.205Z,16.82
2019-04-14T18:26:24.754Z,16.70
2019-04-14T18:28:55.707Z,16.40
2019-04-14T18:31:29.543Z,16.65
2019-04-14T18:34:12.258Z,15.50
2019-04-14T18:36:42.088Z,16.62
2019-04-14T18:39:13.099Z,17.50
2019-04-14T18:41:50.043Z,16.17
2019-04-14T18:44:39.454Z,16.55
2019-04-14T18:47:28.387Z,16.60
2019-04-14T18:50:05.376Z,16.57
2019-04-14T18:52:38.993Z,16.02
2019-04-14T18:55:12.696Z,16.95
2019-04-14T18:57:43.680Z,16.80
2019-04-14T19:00:24.153Z,17.15
2019-04-14T19:02:53.792Z,16.97
2019-04-14T19:05:24.181Z,17.17
2019-04-14T19:07:54.012Z,17.45
2019-04-14T19:10:23.808Z,17.73
2019-04-14T19:12:54.772Z,17.35
2019-04-14T19:15:31.565Z,18.27
2019-04-14T19:18:18.660Z,18.32
2019-04-14T19:20:49.772Z,18.70
2019-04-14T19:23:19.383Z,19.70
2019-04-14T19:25:48.684Z,19.65
2019-04-14T19:28:18.033Z,18.80
2019-04-14T19:30:47.435Z,18.45
2019-04-14T19:33:16.751Z,18.40
2019-04-14T19:35:47.543Z,18.00
2019-04-14T19:38:16.908Z,18.55
2019-04-14T19:40:46.206Z,19.75
2019-04-14T19:43:23.549Z,18.82
2019-04-14T19:45:46.662Z,19.57
2019-04-14T19:48:15.929Z,18.73
2019-04-14T19:50:46.296Z,20.55
2019-04-14T19:53:15.615Z,19.70
2019-04-14T19:55:45.173Z,19.85
2019-04-14T19:58:14.554Z,19.75
2019-04-14T20:00:43.930Z,19.80
2019-04-14T20:03:13.276Z,20.50
2019-04-14T20:05:42.858Z,20.95
2019-04-14T20:08:12.235Z,20.65
2019-04-14T20:10:41.611Z,19.70
2019-04-14T20:13:11.368Z,20.68
2019-04-14T20:15:58.854Z,20.57
2019-04-14T20:18:46.318Z,20.68
2019-04-14T20:21:33.446Z,19.75
2019-04-14T20:24:13.037Z,20.55
2019-04-14T20:26:53.223Z,20.95
2019-04-14T20:29:24.240Z,20.82
2019-04-14T20:31:55.152Z,21.02
2019-04-14T20:34:24.453Z,20.35
2019-04-14T20:36:55.523Z,20.57
2019-04-14T20:39:25.146Z,19.87
2019-04-14T20:41:54.605Z,19.95
2019-04-14T20:44:24.011Z,19.90
2019-04-14T20:46:53.267Z,20.30
2019-04-14T20:49:22.583Z,19.35
2019-04-14T20:51:51.847Z,19.45
2019-04-14T20:54:21.185Z,20.32
2019-04-14T20:56:50.529Z,20.90
2019-04-14T20:59:20.023Z,20.48
2019-04-14T21:01:57.880Z,19.98
2019-04-14T21:04:32.918Z,19.87
2019-04-14T21:07:03.835Z,20.97
2019-04-14T21:09:34.841Z,21.02
2019-04-14T21:12:11.692Z,20.88
2019-04-14T21:14:48.642Z,20.95
2019-04-14T21:17:27.051Z,20.48
2019-04-14T21:20:12.984Z,20.05
2019-04-14T21:22:56.415Z,20.88
2019-04-14T21:25:33.434Z,19.10
2019-04-14T21:28:22.526Z,19.82
2019-04-14T21:30:53.447Z,20.48
2019-04-14T21:33:30.222Z,20.97
2019-04-14T21:36:17.495Z,19.98
2019-04-14T21:38:51.405Z,20.40
2019-04-14T21:41:25.349Z,20.95
2019-04-14T21:43:54.632Z,20.92
2019-04-14T21:46:23.933Z,21.00
2019-04-14T21:48:53.218Z,20.15
2019-04-14T21:51:24.177Z,20.85
2019-04-14T21:53:53.540Z,20.30
2019-04-14T21:56:24.485Z,20.25
2019-04-14T21:58:57.073Z,21.57
2019-04-14T22:01:52.220Z,22.02
2019-04-14T22:04:23.237Z,21.48
2019-04-14T22:06:57.206Z,21.85
2019-04-14T22:09:29.022Z,21.57
2019-04-14T22:11:59.572Z,22.70
2019-04-14T22:14:28.954Z,22.52
2019-04-14T22:16:58.376Z,22.67
2019-04-14T22:19:27.749Z,21.50
2019-04-14T22:21:57.027Z,22.80
2019-04-14T22:24:26.842Z,23.05
2019-04-14T22:26:56.356Z,23.55
2019-04-14T22:29:25.656Z,21.82
2019-04-14T22:31:54.935Z,22.67
2019-04-14T22:34:24.234Z,22.73
2019-04-14T22:36:53.516Z,21.82
2019-04-14T22:39:23.012Z,23.65
2019-04-14T22:41:52.432Z,23.12
2019-04-14T22:44:23.461Z,23.90
2019-04-14T22:46:52.863Z,23.30
2019-04-14T22:49:22.233Z,23.25
2019-04-14T22:51:51.510Z,23.50
2019-04-14T22:54:20.833Z,23.40
2019-04-14T22:56:50.119Z,22.45
2019-04-14T22:59:19.429Z,23.52
2019-04-14T23:01:50.409Z,23.67
2019-04-14T23:04:36.374Z,22.20
2019-04-14T23:07:25.605Z,22.00
2019-04-14T23:10:11.851Z,22.55
2019-04-14T23:12:58.977Z,23.95
2019-04-14T23:15:35.855Z,25.43
2019-04-14T23:18:09.876Z,24.60
2019-04-14T23:20:41.009Z,24.10
2019-04-14T23:23:20.783Z,23.32
2019-04-14T23:25:51.382Z,24.15
2019-04-14T23:28:20.718Z,26.57
2019-04-14T23:30:50.084Z,27.10
2019-04-14T23:33:19.431Z,26.55
2019-04-14T23:35:48.811Z,27.05
2019-04-14T23:38:18.152Z,27.27
2019-04-14T23:40:49.073Z,28.20
2019-04-14T23:43:18.437Z,28.25
2019-04-14T23:45:47.735Z,25.88
2019-04-14T23:48:17.013Z,25.77
2019-04-14T23:50:46.373Z,26.30
2019-04-14T23:53:15.762Z,27.75
2019-04-14T23:55:45.098Z,27.30
2019-04-14T23:58:14.629Z,27.45
